Time;durP1;ratioP1;P1;durP2;ratioP2;P2;SDS_P1;SDS_P2;PMS_P1;PMS_P2;Temp;Humidity;BMP_temperature;BMP_pressure;BME280_temperature;BME280_humidity;BME280_pressure;Samples;Min_cycle;Max_cycle;Signal;HPM_P1;HPM_P2
2023/09/22 00:04:02;;;;;;;7.35;2.50;;;;;;;17.89;68.20;96241.16;10538935;28;20064;-63
2023/09/22 00:09:23;;;;;;;5.13;2.08;;;;;;;17.88;68.40;96242.56;10538445;28;20130;-63
2023/09/22 00:14:45;;;;;;;6.28;2.10;;;;;;;17.81;68.75;96245.97;10539408;28;20064;-63
2023/09/22 00:20:12;;;;;;;6.78;2.42;;;;;;;17.71;69.48;96266.28;10546651;28;20072;-63
2023/09/22 00:25:33;;;;;;;5.97;2.22;;;;;;;17.67;69.86;96258.44;10545564;28;20090;-63
2023/09/22 00:30:54;;;;;;;6.25;2.10;;;;;;;17.64;70.16;96270.34;10546174;28;20067;-64
2023/09/22 00:36:16;;;;;;;8.20;2.10;;;;;;;17.65;70.80;96263.31;10545995;28;20115;-64
2023/09/22 00:41:37;;;;;;;5.70;2.05;;;;;;;17.68;70.67;96270.44;10546011;28;20123;-63
2023/09/22 00:46:58;;;;;;;7.30;2.30;;;;;;;17.69;70.81;96263.41;10545550;28;20051;-64
2023/09/22 00:52:19;;;;;;;7.03;2.20;;;;;;;17.69;70.51;96277.50;10530323;28;20060;-64
2023/09/22 00:57:40;;;;;;;4.90;2.17;;;;;;;17.61;70.83;96251.97;10530072;28;20118;-64
2023/09/22 01:03:02;;;;;;;6.93;2.22;;;;;;;17.59;70.98;96247.00;10543962;28;20166;-64
2023/09/22 01:08:23;;;;;;;4.53;2.40;;;;;;;17.56;70.85;96244.81;10543977;28;20052;-63
2023/09/22 01:13:44;;;;;;;5.65;2.13;;;;;;;17.51;70.91;96251.81;10544642;28;20567;-63
2023/09/22 01:19:16;;;;;;;6.75;2.30;;;;;;;17.44;71.02;96248.88;10529377;28;20539;-63
2023/09/22 01:24:36;;;;;;;5.82;2.67;;;;;;;17.38;71.50;96265.72;10543150;28;20466;-63
2023/09/22 01:29:57;;;;;;;5.38;2.10;;;;;;;17.31;71.98;96269.09;10543044;28;20165;-63
2023/09/22 01:35:18;;;;;;;6.22;2.20;;;;;;;17.31;72.46;96345.22;10542799;28;20063;-63
2023/09/22 01:40:40;;;;;;;7.47;3.03;;;;;;;17.30;72.06;96341.00;10542398;28;20070;-63
2023/09/22 01:46:00;;;;;;;8.40;2.50;;;;;;;17.25;72.38;96359.22;10543306;28;20509;-63
2023/09/22 01:51:22;;;;;;;6.72;2.65;;;;;;;17.24;72.51;96319.03;10541878;28;20083;-63
2023/09/22 01:56:43;;;;;;;5.95;2.10;;;;;;;17.19;72.95;96334.44;10542912;28;20123;-63
2023/09/22 02:02:04;;;;;;;6.35;2.42;;;;;;;17.21;72.75;96334.47;10541837;28;20124;-63
2023/09/22 02:07:25;;;;;;;7.63;2.50;;;;;;;17.23;72.84;96317.59;10542389;28;20182;-63
2023/09/22 02:12:45;;;;;;;5.97;2.05;;;;;;;17.27;72.96;96343.03;10541090;28;20048;-63
2023/09/22 02:18:06;;;;;;;10.65;2.22;;;;;;;17.31;73.11;96348.78;10541907;28;20074;-64
2023/09/22 02:23:27;;;;;;;6.15;2.72;;;;;;;17.36;73.28;96324.88;10540596;28;20056;-63
2023/09/22 02:28:51;;;;;;;4.55;2.33;;;;;;;17.42;72.96;96344.75;10541225;28;20147;-63
2023/09/22 02:34:13;;;;;;;5.38;2.55;;;;;;;17.43;72.77;96346.16;10541444;28;20120;-63
2023/09/22 02:39:34;;;;;;;5.05;2.50;;;;;;;17.36;72.63;96343.91;10540017;28;20083;-63
2023/09/22 02:44:55;;;;;;;7.45;2.80;;;;;;;17.31;73.06;96345.94;10540968;28;20142;-65
2023/09/22 02:50:17;;;;;;;9.00;3.67;;;;;;;17.26;73.09;96361.34;10539754;28;20044;-63
2023/09/22 02:55:38;;;;;;;6.20;3.80;;;;;;;17.26;73.39;96366.28;10539415;28;20048;-63
2023/09/22 03:00:59;;;;;;;7.35;4.50;;;;;;;17.26;73.08;96378.25;10540356;28;20515;-63
2023/09/22 03:06:19;;;;;;;13.27;4.05;;;;;;;17.21;73.61;96390.16;10539059;28;20052;-63
2023/09/22 03:11:40;;;;;;;7.13;4.35;;;;;;;17.17;73.88;96393.59;10540054;28;20123;-65
2023/09/22 03:17:01;;;;;;;11.38;4.78;;;;;;;17.14;74.54;96406.22;10538789;28;20124;-63
2023/09/22 03:22:22;;;;;;;7.60;4.63;;;;;;;17.10;74.29;96415.31;10539430;28;20087;-63
2023/09/22 03:27:43;;;;;;;9.30;5.13;;;;;;;17.04;74.52;96420.09;10538688;28;20115;-63
2023/09/22 03:33:08;;;;;;;8.85;4.93;;;;;;;16.97;74.52;96424.19;10538261;28;20067;-63
2023/09/22 03:38:29;;;;;;;7.75;4.32;;;;;;;16.91;75.30;96426.88;10538334;28;20139;-64
2023/09/22 03:43:51;;;;;;;9.35;5.30;;;;;;;16.86;75.31;96432.41;10538028;28;20486;-63
2023/09/22 03:49:12;;;;;;;8.40;5.22;;;;;;;16.86;75.78;96434.53;10538017;28;20177;-64
2023/09/22 03:54:33;;;;;;;7.10;4.82;;;;;;;16.85;75.54;96445.06;10547559;28;20119;-64
2023/09/22 03:59:54;;;;;;;8.43;4.95;;;;;;;16.83;75.78;96447.84;10546429;28;20127;-62
2023/09/22 04:05:15;;;;;;;7.15;5.10;;;;;;;16.81;75.48;96447.81;10547469;28;20109;-63
2023/09/22 04:10:37;;;;;;;9.63;4.97;;;;;;;16.77;76.23;96439.25;10531993;28;20071;-64
2023/09/22 04:16:03;;;;;;;7.00;4.53;;;;;;;16.74;76.16;96440.59;10547105;28;20043;-64
2023/09/22 04:21:23;;;;;;;11.80;4.65;;;;;;;16.72;76.24;96437.03;10545737;28;20128;-64
2023/09/22 04:26:44;;;;;;;5.68;4.18;;;;;;;16.69;76.61;96424.97;10546589;28;20071;-63
2023/09/22 04:32:05;;;;;;;8.73;4.22;;;;;;;16.62;77.00;96423.41;10545980;28;20460;-63
2023/09/22 04:37:26;;;;;;;5.13;3.47;;;;;;;16.58;76.61;96426.81;10546102;28;20158;-64
2023/09/22 04:42:48;;;;;;;6.07;3.25;;;;;;;16.59;76.89;96447.25;10546295;28;20072;-64
2023/09/22 04:48:10;;;;;;;4.83;2.97;;;;;;;16.63;76.63;96447.38;10545860;28;20115;-64
2023/09/22 04:53:32;;;;;;;5.30;3.03;;;;;;;16.67;76.59;96427.00;10545542;28;20120;-64
2023/09/22 04:58:56;;;;;;;5.78;2.30;;;;;;;16.79;76.84;96450.59;10545138;28;20113;-64
2023/09/22 05:04:17;;;;;;;3.45;2.08;;;;;;;16.96;76.18;96454.47;10543915;28;20109;-64
2023/09/22 05:09:37;;;;;;;3.78;2.20;;;;;;;17.13;76.03;96461.19;10543480;28;20140;-65
2023/09/22 05:15:01;;;;;;;7.93;1.87;;;;;;;17.30;75.72;96482.00;10543388;28;20120;-64
2023/09/22 05:20:21;;;;;;;2.85;1.20;;;;;;;17.48;75.29;96476.72;10544220;28;20083;-66
2023/09/22 05:25:42;;;;;;;2.75;1.10;;;;;;;17.74;74.73;96493.47;10543942;28;20120;-64
2023/09/22 05:31:06;;;;;;;3.53;0.88;;;;;;;18.10;74.03;96489.94;10543731;28;20154;-64
2023/09/22 05:36:33;;;;;;;5.32;0.85;;;;;;;18.77;72.76;96522.19;10543382;28;20115;-64
2023/09/22 05:41:54;;;;;;;1.45;0.75;;;;;;;19.68;71.04;96536.94;10543468;28;20193;-62
2023/09/22 05:47:15;;;;;;;1.60;0.80;;;;;;;19.35;68.37;96535.78;10542206;28;20044;-62
2023/09/22 05:52:37;;;;;;;2.08;0.93;;;;;;;18.73;68.02;96539.09;10542289;28;20119;-64
2023/09/22 05:58:02;;;;;;;2.72;1.23;;;;;;;18.35;68.38;96545.47;10542859;28;20117;-64
2023/09/22 06:03:22;;;;;;;3.90;1.38;;;;;;;18.16;68.86;96529.59;10542394;28;20550;-64
2023/09/22 06:08:45;;;;;;;2.60;1.58;;;;;;;18.13;69.21;96534.47;10542341;28;20098;-64
2023/09/22 06:14:06;;;;;;;3.08;1.50;;;;;;;18.15;68.93;96534.50;10541819;28;20083;-64
2023/09/22 06:19:27;;;;;;;3.90;1.17;;;;;;;18.12;68.72;96544.31;10541730;28;20181;-65
2023/09/22 06:24:50;;;;;;;4.15;1.80;;;;;;;18.10;68.71;96566.16;10541850;28;20123;-64
2023/09/22 06:30:11;;;;;;;2.80;1.42;;;;;;;18.05;69.23;96578.75;10540348;28;20072;-64
2023/09/22 06:35:33;;;;;;;3.58;1.15;;;;;;;18.06;68.89;96583.03;10541330;28;20040;-64
2023/09/22 06:40:55;;;;;;;3.35;1.30;;;;;;;18.09;68.51;96596.50;10540989;28;20074;-63
2023/09/22 06:46:18;;;;;;;4.00;1.27;;;;;;;18.16;68.93;96594.53;10540774;28;20072;-64
2023/09/22 06:51:39;;;;;;;2.20;1.15;;;;;;;18.24;68.88;96606.00;10540393;28;20131;-64
2023/09/22 06:57:01;;;;;;;7.63;1.40;;;;;;;18.39;68.49;96610.50;10525257;28;20043;-63
2023/09/22 07:02:22;;;;;;;4.53;1.25;;;;;;;18.50;68.00;96620.59;10540278;28;20490;-63
2023/09/22 07:07:43;;;;;;;2.97;0.98;;;;;;;18.56;67.57;96651.09;10539921;28;20543;-64
2023/09/22 07:13:03;;;;;;;2.28;0.80;;;;;;;18.50;66.79;96667.91;10539946;28;20494;-64
2023/09/22 07:18:25;;;;;;;4.65;0.90;;;;;;;18.57;66.56;96667.38;10539857;28;20040;-64
2023/09/22 07:23:45;;;;;;;1.75;0.50;;;;;;;18.73;66.32;96688.88;10538170;28;20121;-64
2023/09/22 07:29:06;;;;;;;1.48;0.40;;;;;;;18.90;65.02;96687.06;10539014;28;20040;-64
2023/09/22 07:34:28;;;;;;;1.45;0.30;;;;;;;19.08;64.02;96695.88;10539217;28;20470;-63
2023/09/22 07:39:48;;;;;;;0.80;0.20;;;;;;;19.07;63.44;96683.13;10539169;28;20082;-64
2023/09/22 07:45:09;;;;;;;1.42;0.30;;;;;;;19.13;62.72;96689.63;10538974;28;20048;-63
2023/09/22 07:50:30;;;;;;;2.65;0.38;;;;;;;19.17;62.07;96698.16;10538993;28;20064;-64
2023/09/22 07:55:55;;;;;;;2.03;0.40;;;;;;;19.46;61.36;96704.28;10538445;28;20213;-63
2023/09/22 08:01:16;;;;;;;4.00;0.60;;;;;;;20.45;59.78;96699.38;10538701;28;20052;-64
2023/09/22 08:06:37;;;;;;;2.40;0.30;;;;;;;21.26;57.85;96710.91;10538251;28;20393;-64
2023/09/22 08:11:57;;;;;;;2.65;0.47;;;;;;;21.35;55.51;96731.59;10538251;28;20127;-64
2023/09/22 08:17:18;;;;;;;3.53;0.30;;;;;;;20.63;55.38;96738.56;10538496;28;20432;-64
2023/09/22 08:22:42;;;;;;;0.80;0.20;;;;;;;20.13;55.96;96732.94;10538089;28;20123;-63
2023/09/22 08:28:04;;;;;;;1.33;0.20;;;;;;;19.71;56.58;96740.13;10537144;28;20082;-64
2023/09/22 08:33:24;;;;;;;2.92;0.20;;;;;;;19.65;56.91;96756.28;10536874;28;20115;-64
2023/09/22 08:38:45;;;;;;;2.03;0.20;;;;;;;19.49;57.28;96748.19;10543937;28;20056;-64
2023/09/22 08:44:06;;;;;;;4.15;0.13;;;;;;;19.38;58.33;96740.94;10530430;28;20515;-64
2023/09/22 08:49:27;;;;;;;1.13;0.17;;;;;;;19.23;58.57;96767.56;10530163;28;20055;-64
2023/09/22 08:54:48;;;;;;;1.00;0.20;;;;;;;19.34;58.92;96769.19;10545121;28;20560;-64
2023/09/22 09:00:11;;;;;;;0.93;0.17;;;;;;;19.56;58.78;96749.78;10544710;28;20079;-64
2023/09/22 09:05:33;;;;;;;3.03;0.55;;;;;;;19.68;58.66;96741.47;10529919;28;20075;-63
2023/09/22 09:10:53;;;;;;;4.70;1.10;;;;;;;19.67;58.68;96751.34;10544350;28;20116;-64
2023/09/22 09:16:30;;;;;;;3.85;0.80;;;;;;;19.51;58.30;96762.41;10543570;28;20125;-64
2023/09/22 09:22:09;;;;;;;1.70;0.38;;;;;;;19.31;59.23;96756.41;10543172;28;20132;-64
2023/09/22 09:27:31;;;;;;;2.63;0.20;;;;;;;19.28;58.80;96769.06;10542842;28;20129;-64
2023/09/22 09:32:51;;;;;;;0.50;0.10;;;;;;;18.99;59.58;96771.34;10542785;28;20119;-63
2023/09/22 09:38:13;;;;;;;1.45;0.10;;;;;;;18.84;60.44;96778.16;10528569;28;20079;-64
2023/09/22 09:43:33;;;;;;;3.08;0.22;;;;;;;18.77;61.22;96782.25;10543498;28;20409;-63
2023/09/22 09:48:55;;;;;;;2.15;0.20;;;;;;;18.74;61.48;96780.78;10541606;28;20072;-64
2023/09/22 09:54:17;;;;;;;0.55;0.20;;;;;;;18.76;61.66;96790.00;10541948;28;20082;-64
2023/09/22 09:59:38;;;;;;;0.85;0.20;;;;;;;18.65;62.62;96790.47;10527948;28;20072;-64
2023/09/22 10:05:06;;;;;;;1.85;0.20;;;;;;;18.69;63.05;96762.28;10542247;28;20072;-64
2023/09/22 10:10:27;;;;;;;0.63;0.10;;;;;;;18.97;62.92;96759.28;10542416;28;20570;-64
2023/09/22 10:16:01;;;;;;;0.50;0.20;;;;;;;19.48;63.06;96763.75;10526590;28;20068;-64
2023/09/22 10:21:28;;;;;;;0.45;0.10;;;;;;;20.06;61.95;96756.91;10542050;28;20381;-64
2023/09/22 10:27:11;;;;;;;2.05;0.22;;;;;;;20.15;60.95;96767.66;10541823;28;20048;-64
2023/09/22 10:32:33;;;;;;;0.77;0.20;;;;;;;20.08;61.70;96774.66;10541425;28;20044;-64
2023/09/22 10:38:00;;;;;;;0.40;0.13;;;;;;;19.90;61.22;96768.72;10541293;28;20534;-64
2023/09/22 10:43:21;;;;;;;0.40;0.15;;;;;;;19.83;61.73;96764.34;10541221;28;20105;-64
2023/09/22 10:48:42;;;;;;;1.40;0.20;;;;;;;19.77;61.19;96776.28;10540620;28;20135;-64
2023/09/22 10:54:02;;;;;;;1.63;0.30;;;;;;;19.60;61.05;96794.41;10540684;28;20068;-64
2023/09/22 10:59:31;;;;;;;1.40;0.20;;;;;;;19.19;61.33;96819.09;10539496;28;20076;-63
2023/09/22 11:04:51;;;;;;;0.95;0.20;;;;;;;18.88;61.57;96803.66;10539908;28;20052;-63
2023/09/22 11:10:19;;;;;;;0.55;0.20;;;;;;;18.76;62.53;96803.41;10540237;28;20055;-64
2023/09/22 11:15:51;;;;;;;0.68;0.20;;;;;;;18.66;61.67;96814.50;10540008;28;20090;-64
2023/09/22 11:21:13;;;;;;;2.40;0.25;;;;;;;18.59;61.74;96813.63;10538996;28;20386;-64
2023/09/22 11:26:43;;;;;;;1.85;0.20;;;;;;;18.69;62.05;96815.97;10539640;28;20049;-64
2023/09/22 11:32:05;;;;;;;0.75;0.20;;;;;;;18.76;61.30;96826.75;10538514;28;20503;-64
2023/09/22 11:37:30;;;;;;;4.57;0.38;;;;;;;18.69;61.71;96827.28;10539512;28;20139;-64
2023/09/22 11:42:51;;;;;;;1.73;0.20;;;;;;;18.89;61.46;96816.41;10539158;28;20051;-63
2023/09/22 11:48:12;;;;;;;1.10;0.30;;;;;;;19.08;61.53;96804.06;10538100;28;20075;-64
2023/09/22 11:53:33;;;;;;;1.67;0.20;;;;;;;18.92;60.85;96809.41;10538788;28;20059;-64
2023/09/22 11:59:09;;;;;;;0.95;0.30;;;;;;;18.82;60.63;96812.03;10538912;28;20490;-64
2023/09/22 12:04:32;;;;;;;1.25;0.20;;;;;;;18.80;61.13;96831.75;10538905;28;20129;-64
2023/09/22 12:09:53;;;;;;;1.53;0.20;;;;;;;18.73;60.85;96830.22;10538685;28;20082;-64
2023/09/22 12:15:13;;;;;;;1.00;0.28;;;;;;;18.62;61.34;96845.47;10546788;28;20357;-64
2023/09/22 12:20:35;;;;;;;1.10;0.30;;;;;;;18.57;61.07;96848.22;10546636;28;20178;-66
2023/09/22 12:25:56;;;;;;;1.10;0.30;;;;;;;18.41;61.21;96856.31;10546760;28;20123;-63
2023/09/22 12:31:18;;;;;;;1.63;0.32;;;;;;;18.45;61.51;96853.63;10545189;28;20127;-64
2023/09/22 12:36:39;;;;;;;0.80;0.22;;;;;;;18.57;61.51;96845.41;10546179;28;20063;-63
2023/09/22 12:42:00;;;;;;;3.63;0.45;;;;;;;18.85;61.04;96839.66;10546053;28;20079;-64
2023/09/22 12:47:20;;;;;;;4.78;0.50;;;;;;;19.14;60.75;96843.78;10545620;28;20509;-64
2023/09/22 12:52:42;;;;;;;1.05;0.20;;;;;;;19.26;60.01;96843.28;10545517;28;20075;-63
2023/09/22 12:58:03;;;;;;;2.08;0.43;;;;;;;19.14;59.58;96835.28;10545232;28;20086;-64
2023/09/22 13:03:25;;;;;;;0.80;0.20;;;;;;;19.10;59.72;96842.97;10543785;28;20048;-64
2023/09/22 13:08:46;;;;;;;0.73;0.20;;;;;;;19.05;59.37;96850.66;10529409;28;20074;-64
2023/09/22 13:14:07;;;;;;;1.20;0.22;;;;;;;18.95;59.45;96847.63;10544192;28;20127;-64
2023/09/22 13:19:31;;;;;;;1.98;0.25;;;;;;;18.90;59.75;96865.91;10544449;28;20120;-64
2023/09/22 13:24:52;;;;;;;1.30;0.30;;;;;;;18.72;59.14;96851.38;10541945;28;20076;-63
2023/09/22 13:30:13;;;;;;;1.83;0.20;;;;;;;18.66;59.54;96871.03;10542938;28;20169;-63
2023/09/22 13:35:34;;;;;;;2.05;0.20;;;;;;;18.60;59.63;96866.66;10528836;28;20124;-63
2023/09/22 13:40:56;;;;;;;0.90;0.38;;;;;;;18.53;59.49;96870.75;10542706;28;20079;-63
2023/09/22 13:46:17;;;;;;;0.90;0.30;;;;;;;18.50;59.39;96866.44;10543086;28;20477;-64
2023/09/22 13:51:37;;;;;;;1.25;0.20;;;;;;;18.44;59.16;96866.31;10543038;28;20166;-64
2023/09/22 13:56:58;;;;;;;2.03;0.22;;;;;;;18.41;59.88;96866.91;10542826;28;20194;-64
2023/09/22 14:02:19;;;;;;;1.42;0.20;;;;;;;18.51;59.60;96865.03;10542640;28;20127;-63
2023/09/22 14:07:40;;;;;;;0.60;0.20;;;;;;;18.62;59.61;96870.91;10542490;28;20082;-64
2023/09/22 14:13:01;;;;;;;0.98;0.30;;;;;;;18.57;59.40;96870.84;10541070;28;20068;-63
2023/09/22 14:18:22;;;;;;;1.50;0.28;;;;;;;18.51;59.63;96867.84;10542053;28;20165;-64
2023/09/22 14:23:42;;;;;;;1.70;0.30;;;;;;;18.64;59.74;96885.09;10541401;28;20079;-64
2023/09/22 14:29:04;;;;;;;1.42;0.40;;;;;;;18.58;59.53;96897.69;10541675;28;20044;-63
2023/09/22 14:34:24;;;;;;;0.75;0.20;;;;;;;18.44;60.01;96888.19;10541035;28;20070;-63
2023/09/22 14:39:46;;;;;;;1.23;0.30;;;;;;;18.36;59.82;96893.66;10540998;28;20128;-64
2023/09/22 14:45:07;;;;;;;0.90;0.40;;;;;;;18.27;60.07;96889.91;10539989;28;20055;-64
2023/09/22 14:50:28;;;;;;;4.15;0.50;;;;;;;18.13;60.75;96878.25;10540602;28;20455;-64
2023/09/22 14:55:49;;;;;;;4.05;0.30;;;;;;;18.08;60.91;96873.91;10539346;28;20075;-64
2023/09/22 15:01:11;;;;;;;1.45;0.47;;;;;;;17.84;60.54;96883.19;10540137;28;20410;-64
2023/09/22 15:06:31;;;;;;;1.02;0.50;;;;;;;17.68;61.39;96880.66;10539147;28;20048;-64
2023/09/22 15:11:52;;;;;;;3.53;0.50;;;;;;;17.69;61.74;96872.91;10540033;28;20068;-64
2023/09/22 15:17:13;;;;;;;0.80;0.40;;;;;;;17.58;62.05;96885.34;10539966;28;20071;-64
2023/09/22 15:22:33;;;;;;;1.30;0.40;;;;;;;17.58;62.58;96894.50;10539116;28;20044;-64
2023/09/22 15:27:54;;;;;;;2.22;0.65;;;;;;;17.65;62.68;96901.75;10539394;28;20051;-63
2023/09/22 15:33:15;;;;;;;2.08;0.63;;;;;;;17.67;63.05;96889.81;10539576;28;20115;-63
2023/09/22 15:38:36;;;;;;;1.25;0.43;;;;;;;17.65;63.09;96893.28;10539404;28;20118;-64
2023/09/22 15:43:56;;;;;;;0.80;0.30;;;;;;;17.60;63.07;96900.22;10539151;28;20136;-64
2023/09/22 15:49:17;;;;;;;1.10;0.50;;;;;;;17.47;63.57;96901.28;10537621;28;20512;-64
2023/09/22 15:54:38;;;;;;;1.58;0.57;;;;;;;17.39;63.97;96909.50;10538890;28;20059;-64
2023/09/22 15:59:59;;;;;;;1.50;0.60;;;;;;;17.34;64.39;96905.13;10539197;28;20079;-64
2023/09/22 16:05:19;;;;;;;2.53;0.40;;;;;;;17.26;65.33;96913.34;10538667;28;20112;-64
2023/09/22 16:10:44;;;;;;;2.45;0.60;;;;;;;17.20;65.40;96901.91;10538841;28;20063;-64
2023/09/22 16:16:05;;;;;;;1.63;0.50;;;;;;;17.07;65.74;96910.00;10538360;28;20064;-64
2023/09/22 16:21:26;;;;;;;4.47;0.60;;;;;;;16.88;66.37;96908.75;10538540;28;20125;-64
2023/09/22 16:26:47;;;;;;;2.60;0.73;;;;;;;16.86;67.02;96903.06;10538481;28;20132;-64
2023/09/22 16:32:09;;;;;;;4.57;0.75;;;;;;;16.82;67.05;96908.59;10538196;28;20036;-64
2023/09/22 16:37:30;;;;;;;2.85;0.68;;;;;;;16.83;67.41;96912.13;10537332;28;20462;-64
2023/09/22 16:42:50;;;;;;;2.42;0.60;;;;;;;16.74;67.45;96916.81;10538138;28;20127;-64
2023/09/22 16:48:11;;;;;;;1.25;0.50;;;;;;;16.71;68.29;96917.41;10537005;28;20082;-64
2023/09/22 16:53:32;;;;;;;3.00;0.55;;;;;;;16.66;68.35;96944.69;10537750;28;20466;-64
2023/09/22 16:58:53;;;;;;;2.00;0.77;;;;;;;16.67;68.41;96948.25;10540468;28;20119;-64
2023/09/22 17:04:14;;;;;;;1.90;0.60;;;;;;;16.57;69.17;96968.34;10545260;28;20044;-64
2023/09/22 17:09:34;;;;;;;4.95;0.63;;;;;;;16.49;69.48;96962.47;10545262;28;20120;-64
2023/09/22 17:14:55;;;;;;;1.70;0.57;;;;;;;16.46;69.53;96969.41;10543980;28;20096;-64
2023/09/22 17:20:16;;;;;;;1.00;0.40;;;;;;;16.35;70.01;96976.09;10544514;28;20150;-64
2023/09/22 17:25:37;;;;;;;0.90;0.30;;;;;;;16.22;70.57;96984.16;10544580;28;20056;-64
2023/09/22 17:31:02;;;;;;;2.47;0.43;;;;;;;16.16;71.00;96994.47;10544187;28;20119;-63
2023/09/22 17:36:22;;;;;;;6.10;0.60;;;;;;;16.07;70.82;96999.13;10543125;28;20075;-63
2023/09/22 17:41:44;;;;;;;1.85;0.55;;;;;;;15.95;71.68;97016.31;10542891;28;20147;-63
2023/09/22 17:47:05;;;;;;;1.10;0.43;;;;;;;15.82;71.94;97019.34;10543809;28;20040;-63
2023/09/22 17:52:26;;;;;;;2.05;0.40;;;;;;;15.73;72.14;97013.44;10542765;28;20071;-63
2023/09/22 17:57:47;;;;;;;1.25;0.30;;;;;;;15.52;72.52;97016.13;10543702;28;20044;-63
2023/09/22 18:03:09;;;;;;;3.28;0.50;;;;;;;15.37;73.18;97017.69;10547291;28;20059;-64
2023/09/22 18:08:31;;;;;;;3.58;0.75;;;;;;;15.25;73.78;97011.59;10545834;28;20157;-63
2023/09/22 18:13:52;;;;;;;3.83;0.55;;;;;;;15.25;74.32;97011.59;10542226;28;20052;-63
2023/09/22 18:19:13;;;;;;;2.10;0.80;;;;;;;15.26;74.31;96991.31;10541998;28;20090;-63
2023/09/22 18:24:34;;;;;;;4.50;0.80;;;;;;;15.26;74.33;96973.72;10542024;28;20060;-63
2023/09/22 18:29:55;;;;;;;3.08;0.75;;;;;;;15.27;74.41;96989.94;10541836;28;20048;-63
2023/09/22 18:35:15;;;;;;;1.65;0.60;;;;;;;15.23;74.52;96975.00;10541657;28;20455;-63
2023/09/22 18:40:36;;;;;;;2.97;0.88;;;;;;;15.16;74.79;96976.88;10541624;28;20051;-63
2023/09/22 18:45:57;;;;;;;2.03;0.80;;;;;;;14.93;75.33;96983.72;10541165;28;20076;-63
2023/09/22 18:51:20;;;;;;;2.45;0.73;;;;;;;14.87;75.76;96961.03;10541201;28;20165;-63
2023/09/22 18:56:41;;;;;;;3.63;0.73;;;;;;;14.75;76.15;96985.81;10540784;28;20072;-63
2023/09/22 19:02:05;;;;;;;2.33;0.73;;;;;;;14.70;76.36;96978.63;10540819;28;20485;-63
2023/09/22 19:07:26;;;;;;;2.22;0.55;;;;;;;14.68;77.16;96986.97;10540461;28;20090;-63
2023/09/22 19:12:48;;;;;;;1.50;0.30;;;;;;;14.70;77.20;96967.38;10540273;28;20150;-63
2023/09/22 19:18:10;;;;;;;4.35;0.68;;;;;;;14.70;77.45;96987.75;10539220;28;20060;-63
2023/09/22 19:23:31;;;;;;;2.83;0.60;;;;;;;14.70;77.06;97001.81;10539123;28;20076;-63
2023/09/22 19:28:51;;;;;;;1.83;0.50;;;;;;;14.66;77.20;97040.94;10539940;28;20070;-63
2023/09/22 19:34:12;;;;;;;4.47;0.50;;;;;;;14.62;77.26;97062.53;10540165;28;20113;-63
2023/09/22 19:39:33;;;;;;;1.83;0.65;;;;;;;14.58;77.54;97057.50;10539635;28;20111;-64
2023/09/22 19:44:54;;;;;;;1.33;0.50;;;;;;;14.54;77.86;97058.03;10539567;28;20123;-63
2023/09/22 19:50:15;;;;;;;3.08;0.80;;;;;;;14.52;77.65;97060.75;10538306;28;20068;-63
2023/09/22 19:55:36;;;;;;;3.08;0.93;;;;;;;14.46;78.37;97057.69;10539340;28;20405;-63
2023/09/22 20:00:57;;;;;;;3.17;0.57;;;;;;;14.50;78.43;97066.31;10538988;28;20181;-63
2023/09/22 20:06:17;;;;;;;1.25;0.57;;;;;;;14.49;78.49;97062.06;10537979;28;20068;-63
2023/09/22 20:11:38;;;;;;;1.67;0.50;;;;;;;14.53;78.83;97067.81;10538591;28;20151;-63
2023/09/22 20:16:59;;;;;;;2.17;0.70;;;;;;;14.56;78.78;97082.66;10537693;28;20491;-63
2023/09/22 20:22:20;;;;;;;3.17;0.60;;;;;;;14.62;79.07;97056.94;10537936;28;20052;-63
2023/09/22 20:27:41;;;;;;;2.92;0.80;;;;;;;14.68;79.36;97068.41;10538588;28;20120;-63
2023/09/22 20:33:02;;;;;;;2.33;0.70;;;;;;;14.66;79.11;97079.56;10541376;28;20040;-63
2023/09/22 20:38:23;;;;;;;3.15;0.80;;;;;;;14.61;79.30;97070.25;10546278;28;20455;-63
2023/09/22 20:43:45;;;;;;;4.13;0.70;;;;;;;14.60;79.64;97075.16;10546470;28;20127;-64
2023/09/22 20:49:08;;;;;;;1.70;0.60;;;;;;;14.57;79.65;97062.38;10545035;28;20071;-63
2023/09/22 20:54:30;;;;;;;;;;;;;;;14.60;80.52;97049.88;10545303;28;20115;-63
2023/09/22 20:59:52;;;;;;;1.20;0.60;;;;;;;14.65;80.25;97052.81;10545808;28;19952;-63
2023/09/22 21:05:13;;;;;;;3.38;0.95;;;;;;;14.68;80.10;97060.00;10545135;28;20068;-63
2023/09/22 21:10:34;;;;;;;2.83;1.00;;;;;;;14.72;80.59;97065.75;10544346;28;20115;-63
2023/09/22 21:15:55;;;;;;;3.33;1.20;;;;;;;14.75;80.96;97101.00;10544771;28;20064;-63
2023/09/22 21:21:16;;;;;;;4.53;1.40;;;;;;;14.70;80.74;97097.31;10543899;28;20131;-63
2023/09/22 21:26:37;;;;;;;2.40;1.33;;;;;;;14.68;80.91;97097.22;10529188;28;20497;-64
2023/09/22 21:31:59;;;;;;;2.00;1.00;;;;;;;14.72;81.40;97096.66;10544121;28;20132;-63
2023/09/22 21:37:20;;;;;;;2.10;1.23;;;;;;;14.67;81.30;97111.88;10543150;28;20111;-63
2023/09/22 21:42:41;;;;;;;3.67;1.70;;;;;;;14.67;81.87;97087.34;10543707;28;20071;-63
2023/09/22 21:48:03;;;;;;;3.95;1.85;;;;;;;14.67;81.69;97083.81;10543387;28;20063;-64
2023/09/22 21:53:30;;;;;;;2.53;1.52;;;;;;;14.64;82.10;97091.44;10543306;28;20067;-63
2023/09/22 21:58:54;;;;;;;4.07;1.73;;;;;;;14.62;82.44;97101.88;10543083;28;20075;-63
2023/09/22 22:04:16;;;;;;;4.05;1.95;;;;;;;14.57;82.29;97118.56;10542743;28;20516;-63
2023/09/22 22:09:36;;;;;;;2.67;1.60;;;;;;;14.54;82.58;97114.19;10541684;28;20070;-64
2023/09/22 22:14:57;;;;;;;2.90;1.80;;;;;;;14.58;82.94;97119.28;10542695;28;20123;-63
2023/09/22 22:20:23;;;;;;;5.47;2.08;;;;;;;14.48;82.55;97122.38;10541114;28;20128;-63
2023/09/22 22:25:47;;;;;;;3.38;2.05;;;;;;;14.47;83.01;97154.59;10542282;28;20111;-63
2023/09/22 22:31:07;;;;;;;;;;;;;;;14.42;82.98;97152.97;10541392;28;20127;-63
2023/09/22 22:36:28;;;;;;;3.53;1.92;;;;;;;14.36;83.86;97161.13;10540796;28;19970;-63
2023/09/22 22:41:51;;;;;;;4.20;2.22;;;;;;;14.34;83.26;97163.84;10541736;28;20123;-63
2023/09/22 22:47:12;;;;;;;4.15;1.88;;;;;;;14.26;83.41;97152.97;10541166;28;20056;-63
2023/09/22 22:52:33;;;;;;;4.07;1.98;;;;;;;14.26;83.70;97167.03;10540963;28;20474;-63
2023/09/22 22:57:54;;;;;;;3.92;2.35;;;;;;;14.27;83.58;97178.97;10540759;28;20430;-62
2023/09/22 23:03:15;;;;;;;4.15;2.70;;;;;;;14.27;83.90;97188.13;10540758;28;20134;-63
2023/09/22 23:08:36;;;;;;;3.38;2.70;;;;;;;14.24;83.41;97199.91;10539404;28;20067;-63
2023/09/22 23:13:59;;;;;;;3.33;2.33;;;;;;;14.21;83.72;97187.88;10539132;28;20082;-63
2023/09/22 23:19:20;;;;;;;4.13;2.42;;;;;;;14.18;84.03;97179.97;10540302;28;20040;-63
2023/09/22 23:24:41;;;;;;;3.03;2.50;;;;;;;14.12;84.06;97182.53;10524631;28;20149;-63
2023/09/22 23:30:07;;;;;;;2.55;2.17;;;;;;;14.08;84.39;97199.16;10539778;28;20060;-63
2023/09/22 23:35:29;;;;;;;3.67;2.60;;;;;;;14.04;84.33;97180.06;10539327;28;20052;-63
2023/09/22 23:40:52;;;;;;;3.17;2.50;;;;;;;13.98;84.49;97166.47;10539399;28;20047;-63
2023/09/22 23:46:14;;;;;;;4.10;2.20;;;;;;;13.90;84.53;97179.44;10538231;28;20059;-62
2023/09/22 23:51:35;;;;;;;5.10;2.20;;;;;;;13.85;84.48;97161.69;10539266;28;20067;-63
2023/09/22 23:56:56;;;;;;;3.72;2.80;;;;;;;13.81;84.53;97161.53;10538345;28;20044;-63
